Bookmark and Share
Track history (hours):
 

Jp Tsubaki

Last reported at 2014-Apr-23 14:32 UTC. Time now 2014-Apr-23 15:13 UTC.
Position N 35°24' E 139°39'.

Length 115 m; draft 4.4 m.

Type: Cargo ship. MMSI: 431000734.

NotesDate/timePositionNaut miles runAvg speedWind from/ knotsBaromVisibWave heightAir tempDewpointWater temp
2014-Apr-23 14:32N 35°24' E 139°39'0 0.0
2014-Apr-23 13:32N 35°24' E 139°39'0 0.0
2014-Apr-23 12:32N 35°24' E 139°39'0 0.0
2014-Apr-23 11:32N 35°24' E 139°39'0 0.0
2014-Apr-23 10:32N 35°24' E 139°39'0 0.0
2014-Apr-23 09:32N 35°24' E 139°39'0 0.0
2014-Apr-23 08:32N 35°24' E 139°39'0 0.0
2014-Apr-23 07:32N 35°24' E 139°39'0 0.0
2014-Apr-23 06:33N 35°24' E 139°39'5 5.5
2014-Apr-23 05:33N 35°26' E 139°45'4 3.7
2014-Apr-23 04:33N 35°30' E 139°43'0 0.2
2014-Apr-23 03:33N 35°30' E 139°43'0 0.0
2014-Apr-23 02:32N 35°30' E 139°43'0 0.0
2014-Apr-23 01:32N 35°30' E 139°43'0 0.0
2014-Apr-23 00:32N 35°30' E 139°43'0 0.0
2014-Apr-22 23:32N 35°30' E 139°43'0 0.0
2014-Apr-22 22:32N 35°30' E 139°43'0 0.0
2014-Apr-22 21:32N 35°30' E 139°43'0 0.0
2014-Apr-22 20:32N 35°30' E 139°43'0 0.0
2014-Apr-22 19:32N 35°30' E 139°43'0 0.0
2014-Apr-22 18:32N 35°30' E 139°43'0 0.0
2014-Apr-22 17:32N 35°30' E 139°43'0 0.0
2014-Apr-22 16:32N 35°30' E 139°43'0 0.0
2014-Apr-22 15:32N 35°30' E 139°43'0 0.0
2014-Apr-22 14:32N 35°30' E 139°43'3 2.6
2014-Apr-22 13:34N 35°27' E 139°43'5 4.7
2014-Apr-22 12:34N 35°24' E 139°39'0 0.0
2014-Apr-22 11:31N 35°24' E 139°39'0 0.0
2014-Apr-22 10:28N 35°24' E 139°39'0 0.0
2014-Apr-22 09:31N 35°24' E 139°39'0 0.0
2014-Apr-22 08:31N 35°24' E 139°39'0 0.0
2014-Apr-22 07:31N 35°24' E 139°39'0 0.0
2014-Apr-22 06:28N 35°24' E 139°39'0 0.0
2014-Apr-22 05:31N 35°24' E 139°39'0 0.0
2014-Apr-22 04:31N 35°24' E 139°39'0 0.0
2014-Apr-22 03:31N 35°24' E 139°39'0 0.0
2014-Apr-22 02:31N 35°24' E 139°39'0 0.0
2014-Apr-22 01:31N 35°24' E 139°39'0 0.0
2014-Apr-22 00:33N 35°24' E 139°39'5 4.7
2014-Apr-21 23:33N 35°23' E 139°44'0 0.0
2014-Apr-21 22:33N 35°23' E 139°44'0 0.0
2014-Apr-21 21:33N 35°23' E 139°44'0 0.0
2014-Apr-21 20:33N 35°23' E 139°44'0 0.1
2014-Apr-21 19:33N 35°23' E 139°44'0 0.0
2014-Apr-21 18:33N 35°23' E 139°44'3 2.7
2014-Apr-21 17:33N 35°23' E 139°41'1 1.2
2014-Apr-21 16:33N 35°24' E 139°40'0 0.0
2014-Apr-21 15:33N 35°24' E 139°40'0 0.0
2014-Apr-21 14:33N 35°24' E 139°40'0 0.0
2014-Apr-21 13:33N 35°24' E 139°40'0 0.0
2014-Apr-21 12:33N 35°24' E 139°40'0 0.0
2014-Apr-21 11:33N 35°24' E 139°40'1 1.0
2014-Apr-21 10:33N 35°24' E 139°41'8 8.3
2014-Apr-21 09:33N 35°26' E 139°50'0 0.1
2014-Apr-21 08:28N 35°26' E 139°50'0 0.0
2014-Apr-21 07:28N 35°26' E 139°50'0 0.1
2014-Apr-21 06:31N 35°26' E 139°50'0 0.0
2014-Apr-21 05:31N 35°26' E 139°50'0 0.0
2014-Apr-21 04:31N 35°26' E 139°50'0 0.1
2014-Apr-21 03:31N 35°26' E 139°50'0 0.0
2014-Apr-21 02:31N 35°26' E 139°50'0 0.0
2014-Apr-21 01:28N 35°26' E 139°50'0 0.1
2014-Apr-21 00:31N 35°26' E 139°50'0 0.0
2014-Apr-20 23:31N 35°26' E 139°50'0 0.0
2014-Apr-20 22:31N 35°26' E 139°50'0 0.0
2014-Apr-20 21:28N 35°26' E 139°50'0 0.0
2014-Apr-20 20:31N 35°26' E 139°50'0 0.0
2014-Apr-20 19:31N 35°26' E 139°50'0 0.0
2014-Apr-20 18:31N 35°26' E 139°50'0 0.1
2014-Apr-20 17:31N 35°26' E 139°50'0 0.0
2014-Apr-20 16:31N 35°26' E 139°50'0 0.1
2014-Apr-20 15:31N 35°26' E 139°50'3 3.1
2014-Apr-20 14:34N 35°25' E 139°47'1110.9
2014-Apr-20 13:33N 35°14' E 139°47'1312.5
2014-Apr-20 12:33N 35°02' E 139°41'1312.7
2014-Apr-20 11:33N 34°54' E 139°29'1211.9
2014-Apr-20 10:31N 34°47' E 139°17'220 9.5
2014-Apr-19 11:27N 33°59' E 134°57'1213.0
2014-Apr-19 10:33N 34°11' E 134°58'1413.5
2014-Apr-19 09:33N 34°24' E 135°00'1312.8
2014-Apr-19 08:33N 34°37' E 135°01'  

Dump ship's entire track history

sailing weather and tide predictions

Jp Tsubaki — JD2817 — position and weather